createdAt,value
2023-06-19T00:05:03.337Z,5.10
2023-06-19T00:07:37.845Z,4.72
2023-06-19T00:12:56.187Z,5.70
2023-06-19T00:15:31.199Z,4.97
2023-06-19T00:18:02.169Z,4.85
2023-06-19T00:20:29.218Z,5.10
2023-06-19T00:23:14.899Z,5.05
2023-06-19T00:25:45.928Z,4.75
2023-06-19T00:28:22.557Z,5.22
2023-06-19T00:30:50.436Z,5.15
2023-06-19T00:33:17.467Z,4.97
2023-06-19T00:35:44.982Z,5.43
2023-06-19T00:38:17.444Z,4.97
2023-06-19T00:41:07.142Z,5.05
2023-06-19T00:43:34.906Z,5.10
2023-06-19T00:46:03.299Z,5.22
2023-06-19T00:48:37.760Z,5.28
2023-06-19T00:51:05.140Z,5.22
2023-06-19T00:53:36.171Z,4.88
2023-06-19T00:56:05.795Z,4.75
2023-06-19T00:58:33.341Z,5.10
2023-06-19T01:01:08.921Z,5.30
2023-06-19T01:03:37.946Z,5.22
2023-06-19T01:06:15.701Z,5.85
2023-06-19T01:11:54.914Z,6.15
2023-06-19T01:14:33.470Z,5.55
2023-06-19T01:17:07.670Z,5.32
2023-06-19T01:19:34.988Z,5.28
2023-06-19T01:22:08.883Z,5.70
2023-06-19T01:24:36.502Z,5.28
2023-06-19T01:27:04.165Z,5.38
2023-06-19T01:29:31.064Z,5.53
2023-06-19T01:32:06.403Z,5.65
2023-06-19T01:34:40.689Z,5.28
2023-06-19T01:37:08.988Z,4.78
2023-06-19T01:39:37.302Z,5.10
2023-06-19T01:42:06.203Z,5.20
2023-06-19T01:44:33.876Z,4.65
2023-06-19T01:47:00.950Z,5.00
2023-06-19T01:49:27.858Z,5.10
2023-06-19T01:51:55.070Z,5.53
2023-06-19T01:54:21.939Z,4.78
2023-06-19T01:56:48.924Z,5.25
2023-06-19T01:59:15.996Z,5.70
2023-06-19T02:01:43.008Z,4.88
2023-06-19T02:04:09.866Z,4.72
2023-06-19T02:06:37.115Z,5.13
2023-06-19T02:09:04.029Z,4.95
2023-06-19T02:11:32.846Z,4.88
2023-06-19T02:14:02.610Z,5.38
2023-06-19T02:16:29.980Z,5.47
2023-06-19T02:18:57.893Z,4.90
2023-06-19T02:21:27.971Z,5.15
2023-06-19T02:23:57.119Z,5.47
2023-06-19T02:26:30.323Z,6.05
2023-06-19T02:28:57.778Z,5.57
2023-06-19T02:31:25.379Z,5.78
2023-06-19T02:33:54.773Z,5.20
2023-06-19T02:36:22.093Z,6.10
2023-06-19T02:38:49.898Z,4.93
2023-06-19T02:41:17.092Z,5.60
2023-06-19T02:43:44.525Z,5.43
2023-06-19T02:46:13.449Z,5.40
2023-06-19T02:48:40.988Z,5.13
2023-06-19T02:51:07.855Z,4.85
2023-06-19T02:53:36.959Z,5.03
2023-06-19T02:56:04.155Z,5.30
2023-06-19T02:58:31.872Z,5.30
2023-06-19T03:01:01.698Z,5.13
2023-06-19T03:03:30.948Z,5.40
2023-06-19T03:05:57.939Z,5.38
2023-06-19T03:08:24.832Z,5.18
2023-06-19T03:10:54.006Z,5.18
2023-06-19T03:13:22.072Z,4.50
2023-06-19T03:15:49.478Z,5.00
2023-06-19T03:18:17.782Z,5.55
2023-06-19T03:20:44.695Z,5.18
2023-06-19T03:23:11.896Z,5.20
2023-06-19T03:25:42.433Z,5.25
2023-06-19T03:28:09.353Z,5.00
2023-06-19T03:30:38.946Z,4.85
2023-06-19T03:33:06.400Z,5.60
2023-06-19T03:35:33.845Z,4.93
2023-06-19T03:38:00.833Z,4.75
2023-06-19T03:40:28.917Z,4.65
2023-06-19T03:42:57.684Z,4.95
2023-06-19T03:45:24.663Z,3.83
2023-06-19T03:47:51.682Z,3.97
2023-06-19T03:50:21.420Z,4.28
2023-06-19T03:52:52.385Z,4.13
2023-06-19T03:55:19.349Z,4.15
2023-06-19T03:57:46.307Z,3.92
2023-06-19T04:00:19.686Z,3.92
2023-06-19T04:02:59.584Z,3.67
2023-06-19T04:05:27.425Z,3.95
2023-06-19T04:07:54.569Z,3.85
2023-06-19T04:10:21.879Z,4.45
2023-06-19T04:12:50.004Z,4.10
2023-06-19T04:15:17.060Z,4.70
2023-06-19T04:17:44.090Z,5.45
2023-06-19T04:20:20.989Z,4.88
2023-06-19T04:22:48.119Z,3.30
2023-06-19T04:25:17.226Z,4.15
2023-06-19T04:27:45.854Z,3.88
2023-06-19T04:30:15.508Z,3.83
2023-06-19T04:32:47.987Z,3.80
2023-06-19T04:35:16.313Z,3.72
2023-06-19T04:37:43.324Z,4.43
2023-06-19T04:40:10.989Z,5.00
2023-06-19T04:42:40.020Z,4.68
2023-06-19T04:45:08.506Z,6.00
2023-06-19T04:47:52.302Z,4.88
2023-06-19T04:50:39.873Z,5.13
2023-06-19T04:53:07.224Z,5.63
2023-06-19T04:55:40.238Z,5.53
2023-06-19T04:58:19.434Z,4.55
2023-06-19T05:00:46.406Z,5.30
2023-06-19T05:03:15.085Z,4.07
2023-06-19T05:05:54.304Z,4.90
2023-06-19T05:08:21.044Z,5.05
2023-06-19T05:10:47.973Z,5.25
2023-06-19T05:13:23.566Z,5.47
2023-06-19T05:15:51.715Z,5.95
2023-06-19T05:18:21.791Z,6.40
2023-06-19T05:20:48.736Z,6.28
2023-06-19T05:23:15.502Z,6.90
2023-06-19T05:25:44.159Z,6.68
2023-06-19T05:28:11.101Z,6.45
2023-06-19T05:30:38.129Z,6.53
2023-06-19T05:33:05.394Z,6.18
2023-06-19T05:35:33.146Z,6.47
2023-06-19T05:38:02.635Z,6.15
2023-06-19T05:40:32.403Z,6.78
2023-06-19T05:43:01.348Z,6.20
2023-06-19T05:45:28.424Z,6.97
2023-06-19T05:47:55.207Z,7.20
2023-06-19T05:50:22.384Z,6.25
2023-06-19T05:52:49.451Z,5.53
2023-06-19T05:55:42.318Z,5.88
2023-06-19T05:58:09.158Z,7.32
2023-06-19T06:00:36.278Z,5.50
2023-06-19T06:03:03.965Z,5.90
2023-06-19T06:05:31.104Z,5.50
2023-06-19T06:07:58.211Z,5.55
2023-06-19T06:10:26.650Z,5.38
2023-06-19T06:12:54.770Z,5.38
2023-06-19T06:15:21.743Z,5.05
2023-06-19T06:17:48.744Z,5.38
2023-06-19T06:20:15.629Z,5.07
2023-06-19T06:22:43.983Z,4.50
2023-06-19T06:25:14.308Z,4.82
2023-06-19T06:27:42.852Z,5.00
2023-06-19T06:30:10.396Z,4.22
2023-06-19T06:32:37.453Z,6.22
2023-06-19T06:35:05.257Z,5.15
2023-06-19T06:37:32.238Z,5.30
2023-06-19T06:39:59.211Z,5.15
2023-06-19T06:42:26.015Z,4.70
2023-06-19T06:44:57.399Z,4.10
2023-06-19T06:47:24.570Z,4.57
2023-06-19T06:49:51.713Z,4.50
2023-06-19T06:52:18.873Z,5.45
2023-06-19T06:54:46.274Z,4.40
2023-06-19T06:57:13.028Z,5.47
2023-06-19T06:59:40.043Z,4.40
2023-06-19T07:02:07.209Z,4.80
2023-06-19T07:04:34.074Z,4.18
2023-06-19T07:07:01.002Z,5.00
2023-06-19T07:09:28.022Z,4.70
2023-06-19T07:11:54.921Z,4.90
2023-06-19T07:14:22.163Z,4.53
2023-06-19T07:16:49.838Z,4.32
2023-06-19T07:19:17.046Z,4.80
2023-06-19T07:21:45.121Z,4.35
2023-06-19T07:24:12.244Z,4.75
2023-06-19T07:26:39.048Z,4.45
2023-06-19T07:29:06.998Z,4.40
2023-06-19T07:31:46.045Z,4.47
2023-06-19T07:34:13.051Z,3.90
2023-06-19T07:36:39.815Z,4.15
2023-06-19T07:39:28.545Z,4.10
2023-06-19T07:41:55.405Z,3.78
2023-06-19T07:44:22.293Z,3.80
2023-06-19T07:46:49.277Z,3.65
2023-06-19T07:49:16.089Z,4.15
2023-06-19T07:51:42.996Z,3.75
2023-06-19T07:54:09.848Z,4.35
2023-06-19T07:56:36.637Z,4.18
2023-06-19T07:59:05.870Z,3.50
2023-06-19T08:01:33.220Z,3.80
2023-06-19T08:04:01.167Z,3.83
2023-06-19T08:06:27.983Z,3.47
2023-06-19T08:08:54.868Z,3.58
2023-06-19T08:11:21.827Z,3.50
2023-06-19T08:13:48.591Z,3.92
2023-06-19T08:16:15.890Z,4.28
2023-06-19T08:18:43.799Z,3.92
2023-06-19T08:21:10.732Z,3.60
2023-06-19T08:23:39.326Z,4.50
2023-06-19T08:26:06.413Z,4.50
2023-06-19T08:28:33.698Z,4.25
2023-06-19T08:31:00.859Z,4.20
2023-06-19T08:33:27.584Z,3.95
2023-06-19T08:35:54.301Z,4.10
2023-06-19T08:38:21.236Z,3.75
2023-06-19T08:40:51.383Z,3.28
2023-06-19T08:43:18.406Z,3.80
2023-06-19T08:46:01.658Z,4.25
2023-06-19T08:48:29.662Z,3.90
2023-06-19T08:50:56.991Z,3.97
2023-06-19T08:53:24.293Z,3.70
2023-06-19T08:55:52.024Z,3.97
2023-06-19T08:58:25.675Z,4.40
2023-06-19T09:00:52.421Z,3.75
2023-06-19T09:03:23.207Z,3.85
2023-06-19T09:05:53.204Z,4.30
2023-06-19T09:08:21.578Z,3.67
2023-06-19T09:10:59.040Z,3.38
2023-06-19T09:13:26.095Z,4.22
2023-06-19T09:16:07.795Z,3.78
2023-06-19T09:18:46.697Z,3.55
2023-06-19T09:21:23.198Z,3.88
2023-06-19T09:23:53.816Z,3.78
2023-06-19T09:26:21.696Z,3.20
2023-06-19T09:28:51.518Z,3.13
2023-06-19T09:31:18.510Z,3.92
2023-06-19T09:33:45.711Z,2.67
2023-06-19T09:36:12.576Z,3.22
2023-06-19T09:38:41.681Z,4.30
2023-06-19T09:41:09.079Z,3.92
2023-06-19T09:43:42.246Z,3.45
2023-06-19T09:46:13.014Z,3.28
2023-06-19T09:48:51.886Z,2.85
2023-06-19T09:51:23.302Z,2.90
2023-06-19T09:56:45.439Z,3.00
2023-06-19T09:59:14.408Z,2.90
2023-06-19T10:01:45.677Z,2.53
2023-06-19T10:04:18.054Z,2.95
2023-06-19T10:06:47.066Z,2.50
2023-06-19T10:09:20.501Z,2.33
2023-06-19T10:11:49.581Z,2.60
2023-06-19T10:14:24.384Z,2.50
2023-06-19T10:16:51.481Z,2.60
2023-06-19T10:19:25.148Z,2.60
2023-06-19T10:21:55.388Z,2.35
2023-06-19T10:24:25.532Z,2.30
2023-06-19T10:27:02.067Z,2.85
2023-06-19T10:29:40.092Z,2.92
2023-06-19T10:32:08.526Z,2.60
2023-06-19T10:34:50.403Z,2.22
2023-06-19T10:37:18.410Z,2.72
2023-06-19T10:42:29.771Z,2.40
2023-06-19T10:45:07.683Z,2.65
2023-06-19T10:47:35.037Z,2.88
2023-06-19T10:50:02.225Z,2.83
2023-06-19T10:52:32.618Z,2.80
2023-06-19T10:54:59.663Z,2.67
2023-06-19T10:57:30.894Z,2.25
2023-06-19T10:59:59.533Z,2.30
2023-06-19T11:02:27.052Z,2.47
2023-06-19T11:05:04.472Z,2.40
2023-06-19T11:07:33.518Z,3.00
2023-06-19T11:10:00.561Z,2.95
2023-06-19T11:12:27.429Z,2.80
2023-06-19T11:14:57.403Z,2.45
2023-06-19T11:17:24.752Z,2.42
2023-06-19T11:19:52.411Z,2.72
2023-06-19T11:22:19.317Z,2.63
2023-06-19T11:24:49.757Z,2.80
2023-06-19T11:27:28.882Z,2.72
2023-06-19T11:30:00.517Z,3.35
2023-06-19T11:32:42.570Z,2.40
2023-06-19T11:35:12.675Z,2.58
2023-06-19T11:37:45.278Z,2.70
2023-06-19T11:40:20.459Z,2.42
2023-06-19T11:42:49.494Z,2.63
2023-06-19T11:45:17.638Z,2.85
2023-06-19T11:47:46.315Z,2.47
2023-06-19T11:50:28.079Z,2.65
2023-06-19T11:52:55.049Z,2.55
2023-06-19T11:55:31.121Z,2.92
2023-06-19T11:57:58.058Z,2.70
2023-06-19T12:00:25.454Z,3.00
2023-06-19T12:02:53.689Z,2.88
2023-06-19T12:05:25.786Z,2.78
2023-06-19T12:10:37.694Z,2.50
2023-06-19T12:13:04.718Z,2.70
2023-06-19T12:15:40.745Z,2.63
2023-06-19T12:18:08.490Z,2.50
2023-06-19T12:20:35.381Z,2.60
2023-06-19T12:23:06.718Z,2.88
2023-06-19T12:25:33.541Z,2.95
2023-06-19T12:28:08.475Z,2.63
2023-06-19T12:30:36.325Z,3.05
2023-06-19T12:33:07.362Z,2.90
2023-06-19T12:35:44.601Z,2.58
2023-06-19T12:38:12.052Z,3.20
2023-06-19T12:40:39.307Z,2.67
2023-06-19T12:43:06.476Z,2.45
2023-06-19T12:45:33.342Z,3.00
2023-06-19T12:48:00.574Z,3.22
2023-06-19T12:50:27.506Z,3.05
2023-06-19T12:52:57.146Z,2.92
2023-06-19T12:55:26.219Z,2.97
2023-06-19T12:57:52.932Z,2.97
2023-06-19T13:00:19.902Z,3.05
2023-06-19T13:02:48.260Z,2.55
2023-06-19T13:05:15.527Z,2.60
2023-06-19T13:07:42.485Z,2.40
2023-06-19T13:10:09.959Z,2.53
2023-06-19T13:12:36.806Z,2.25
2023-06-19T13:15:04.000Z,2.15
2023-06-19T13:17:30.889Z,2.53
2023-06-19T13:19:57.989Z,2.22
2023-06-19T13:22:25.125Z,2.40
2023-06-19T13:24:52.523Z,2.55
2023-06-19T13:27:19.673Z,2.67
2023-06-19T13:29:46.560Z,2.70
2023-06-19T13:32:13.802Z,2.60
2023-06-19T13:34:42.242Z,2.30
2023-06-19T13:37:09.626Z,2.72
2023-06-19T13:39:36.653Z,2.40
2023-06-19T13:42:03.654Z,2.42
2023-06-19T13:44:30.578Z,2.63
2023-06-19T13:46:57.508Z,2.78
2023-06-19T13:49:24.716Z,2.83
2023-06-19T13:51:52.046Z,2.25
2023-06-19T13:54:19.388Z,2.53
2023-06-19T13:56:46.259Z,2.28
2023-06-19T13:59:13.272Z,2.55
2023-06-19T14:01:40.627Z,2.50
2023-06-19T14:04:07.627Z,2.20
2023-06-19T14:06:34.492Z,2.03
2023-06-19T14:09:01.452Z,2.30
2023-06-19T14:11:30.306Z,2.35
2023-06-19T14:13:57.854Z,2.40
2023-06-19T14:16:30.926Z,2.65
2023-06-19T14:18:58.383Z,2.22
2023-06-19T14:21:25.277Z,2.15
2023-06-19T14:23:52.181Z,2.90
2023-06-19T14:26:19.210Z,2.45
2023-06-19T14:28:46.035Z,2.80
2023-06-19T14:31:13.082Z,2.60
2023-06-19T14:33:40.031Z,2.47
2023-06-19T14:36:07.073Z,2.60
2023-06-19T14:38:35.307Z,2.47
2023-06-19T14:41:05.490Z,2.30
2023-06-19T14:43:34.481Z,2.60
2023-06-19T14:46:01.762Z,2.78
2023-06-19T14:48:31.618Z,2.85
2023-06-19T14:50:58.756Z,2.67
2023-06-19T14:53:25.659Z,2.10
2023-06-19T14:55:52.849Z,2.40
2023-06-19T14:58:19.863Z,2.50
2023-06-19T15:00:47.008Z,2.50
2023-06-19T15:03:27.444Z,2.20
2023-06-19T15:05:56.841Z,2.95
2023-06-19T15:08:25.537Z,2.72
2023-06-19T15:10:52.518Z,2.50
2023-06-19T15:13:19.962Z,2.63
2023-06-19T15:15:48.037Z,3.00
2023-06-19T15:18:15.136Z,2.60
2023-06-19T15:20:56.907Z,2.35
2023-06-19T15:23:24.233Z,2.63
2023-06-19T15:25:53.442Z,3.95
2023-06-19T15:28:20.236Z,3.55
2023-06-19T15:30:47.455Z,6.53
2023-06-19T15:33:21.652Z,2.30
2023-06-19T15:35:48.886Z,7.43
2023-06-19T15:38:19.690Z,14.07
2023-06-19T15:40:51.635Z,34.03
2023-06-19T15:43:18.718Z,10.13
2023-06-19T15:45:46.188Z,5.13
2023-06-19T15:48:54.208Z,2.78
2023-06-19T15:51:23.934Z,2.72
2023-06-19T15:53:50.867Z,2.10
2023-06-19T15:56:17.867Z,3.63
2023-06-19T15:58:46.148Z,20.27
2023-06-19T16:01:13.175Z,11.77
2023-06-19T16:03:43.101Z,14.82
2023-06-19T16:06:10.217Z,3.35
2023-06-19T16:08:37.858Z,2.40
2023-06-19T16:11:06.337Z,4.47
2023-06-19T16:13:33.667Z,2.25
2023-06-19T16:16:00.922Z,2.53
2023-06-19T16:18:28.117Z,3.55
2023-06-19T16:20:55.162Z,2.90
2023-06-19T16:23:22.138Z,4.43
2023-06-19T16:25:49.010Z,3.42
2023-06-19T16:28:17.328Z,3.17
2023-06-19T16:30:50.247Z,3.25
2023-06-19T16:33:18.603Z,2.95
2023-06-19T16:35:45.779Z,4.32
2023-06-19T16:38:12.593Z,2.70
2023-06-19T16:40:39.572Z,2.90
2023-06-19T16:43:06.596Z,2.70
2023-06-19T16:45:33.345Z,3.03
2023-06-19T16:48:01.406Z,3.42
2023-06-19T16:50:28.704Z,2.88
2023-06-19T17:06:19.114Z,3.28
2023-06-19T17:08:51.600Z,3.10
2023-06-19T17:11:20.971Z,3.25
2023-06-19T17:20:13.828Z,3.40
2023-06-19T18:12:06.361Z,3.28
2023-06-19T18:14:42.593Z,3.78
2023-06-19T18:17:11.931Z,3.30
2023-06-19T18:19:46.372Z,3.45
2023-06-19T18:22:13.808Z,3.58
2023-06-19T18:24:43.457Z,3.88
2023-06-19T18:27:20.312Z,3.65
2023-06-19T18:31:03.706Z,3.60
2023-06-19T18:33:30.624Z,4.00
2023-06-19T18:35:57.589Z,3.88
2023-06-19T18:38:25.057Z,3.88
2023-06-19T18:41:02.442Z,3.90
2023-06-19T18:43:35.702Z,3.70
2023-06-19T18:46:03.893Z,4.10
2023-06-19T18:48:42.225Z,3.50
2023-06-19T18:51:09.364Z,3.55
2023-06-19T18:53:42.372Z,4.30
2023-06-19T21:08:16.067Z,4.40
2023-06-19T21:10:44.247Z,3.90
2023-06-19T21:13:22.423Z,3.95
2023-06-19T21:15:50.724Z,4.15
2023-06-19T21:18:20.854Z,4.60
2023-06-19T21:20:47.824Z,4.68
2023-06-19T21:23:15.093Z,4.47
2023-06-19T21:25:42.166Z,4.20
2023-06-19T21:28:09.097Z,4.20
2023-06-19T21:30:36.132Z,4.63
2023-06-19T21:33:02.946Z,4.22
2023-06-19T21:35:29.906Z,4.68
2023-06-19T21:37:56.994Z,4.18
2023-06-19T21:40:24.034Z,4.57
2023-06-19T21:42:51.319Z,4.05
2023-06-19T21:45:18.422Z,4.38
2023-06-19T21:47:46.428Z,4.43
2023-06-19T21:50:14.376Z,4.60
2023-06-19T21:52:42.903Z,4.30
2023-06-19T21:55:10.449Z,5.32
2023-06-19T21:57:57.737Z,4.97
2023-06-19T22:00:28.382Z,4.78
2023-06-19T22:02:59.845Z,4.18
2023-06-19T22:05:27.286Z,4.75
2023-06-19T22:07:56.959Z,4.75
2023-06-19T22:10:25.386Z,4.93
2023-06-19T22:12:52.810Z,4.68
2023-06-19T22:15:19.921Z,4.88
2023-06-19T22:17:51.531Z,5.20
2023-06-19T22:20:19.981Z,5.18
2023-06-19T22:22:48.839Z,4.55
2023-06-19T22:25:16.399Z,5.90
2023-06-19T22:27:46.369Z,5.00
2023-06-19T22:30:15.458Z,5.20
2023-06-19T22:32:45.735Z,4.88
2023-06-19T22:35:25.726Z,5.07
2023-06-19T22:37:54.810Z,5.30
2023-06-19T22:40:21.809Z,5.30
2023-06-19T22:42:51.946Z,5.70
2023-06-19T22:45:26.150Z,5.63
2023-06-19T22:47:59.585Z,5.30
2023-06-19T22:50:43.999Z,5.65
2023-06-19T22:53:11.309Z,4.97
2023-06-19T22:55:44.146Z,5.88
2023-06-19T22:58:11.053Z,5.57
2023-06-19T23:00:39.115Z,5.57
2023-06-19T23:03:07.207Z,5.88
2023-06-19T23:05:37.002Z,5.45
2023-06-19T23:08:04.705Z,5.38
2023-06-19T23:10:32.185Z,5.85
2023-06-19T23:12:59.158Z,5.78
2023-06-19T23:15:26.325Z,5.47
2023-06-19T23:18:00.231Z,5.50
2023-06-19T23:20:27.391Z,6.00
2023-06-19T23:22:57.069Z,5.80
2023-06-19T23:25:27.670Z,6.00
2023-06-19T23:27:54.712Z,5.63
2023-06-19T23:30:21.719Z,6.28
2023-06-19T23:32:48.999Z,6.43
2023-06-19T23:35:15.977Z,5.30
2023-06-19T23:37:51.669Z,5.97
2023-06-19T23:40:19.531Z,6.30
2023-06-19T23:42:46.523Z,6.03
2023-06-19T23:45:13.630Z,6.13
2023-06-19T23:47:40.868Z,6.72
2023-06-19T23:50:08.731Z,6.53
2023-06-19T23:52:43.812Z,6.05
2023-06-19T23:55:12.160Z,5.68
2023-06-19T23:57:39.623Z,6.13
